createdAt,value
2022-09-03T00:00:28.345Z,2.47
2022-09-03T00:02:57.965Z,2.58
2022-09-03T00:05:29.654Z,2.67
2022-09-03T00:08:05.801Z,2.63
2022-09-03T00:11:01.412Z,2.95
2022-09-03T00:13:36.733Z,2.90
2022-09-03T00:16:10.284Z,2.70
2022-09-03T00:18:45.047Z,2.70
2022-09-03T00:21:16.193Z,3.08
2022-09-03T00:23:46.628Z,2.60
2022-09-03T00:26:13.228Z,2.78
2022-09-03T00:28:53.158Z,2.60
2022-09-03T00:31:27.300Z,2.80
2022-09-03T00:34:05.972Z,3.42
2022-09-03T00:36:42.222Z,2.70
2022-09-03T00:39:12.183Z,2.72
2022-09-03T00:41:47.873Z,3.10
2022-09-03T00:45:00.838Z,3.50
2022-09-03T00:47:48.760Z,3.05
2022-09-03T00:50:37.192Z,2.92
2022-09-03T00:53:32.674Z,3.22
2022-09-03T00:56:42.832Z,2.67
2022-09-03T00:59:59.034Z,2.80
2022-09-03T01:03:05.193Z,2.92
2022-09-03T01:05:55.036Z,2.90
2022-09-03T01:08:32.247Z,3.08
2022-09-03T01:11:44.308Z,2.78
2022-09-03T01:14:16.833Z,2.95
2022-09-03T01:16:57.173Z,3.00
2022-09-03T01:19:46.117Z,3.05
2022-09-03T01:22:47.594Z,3.20
2022-09-03T01:25:36.790Z,2.70
2022-09-03T01:28:19.886Z,3.08
2022-09-03T01:30:57.119Z,2.73
2022-09-03T01:33:54.909Z,2.90
2022-09-03T01:36:57.511Z,3.10
2022-09-03T01:39:52.527Z,3.10
2022-09-03T01:42:54.997Z,2.88
2022-09-03T01:45:33.827Z,3.22
2022-09-03T01:48:22.346Z,3.30
2022-09-03T01:50:57.837Z,3.03
2022-09-03T01:53:52.532Z,3.15
2022-09-03T01:56:48.419Z,3.00
2022-09-03T01:59:26.292Z,3.00
2022-09-03T02:02:02.686Z,3.17
2022-09-03T02:04:29.340Z,2.88
2022-09-03T02:07:00.407Z,2.75
2022-09-03T02:09:27.629Z,3.20
2022-09-03T02:12:16.036Z,3.20
2022-09-03T02:14:43.747Z,3.00
2022-09-03T02:17:11.329Z,2.80
2022-09-03T02:19:39.634Z,2.97
2022-09-03T02:22:06.758Z,3.20
2022-09-03T02:24:36.367Z,3.15
2022-09-03T02:27:06.607Z,3.10
2022-09-03T02:29:35.516Z,3.47
2022-09-03T02:32:02.282Z,3.08
2022-09-03T02:34:29.745Z,3.10
2022-09-03T02:36:56.411Z,2.60
2022-09-03T02:39:23.025Z,3.10
2022-09-03T02:42:02.918Z,2.83
2022-09-03T02:44:33.593Z,3.08
2022-09-03T02:47:03.629Z,3.25
2022-09-03T02:49:30.810Z,2.72
2022-09-03T02:52:09.380Z,2.88
2022-09-03T02:54:40.055Z,2.95
2022-09-03T02:57:11.590Z,3.00
2022-09-03T02:59:39.715Z,2.70
2022-09-03T03:02:06.353Z,3.00
2022-09-03T03:04:33.342Z,2.83
2022-09-03T03:07:00.337Z,3.03
2022-09-03T03:09:26.906Z,3.25
2022-09-03T03:11:55.376Z,2.67
2022-09-03T03:14:23.000Z,2.80
2022-09-03T03:16:50.935Z,3.00
2022-09-03T03:19:17.875Z,2.80
2022-09-03T03:21:45.849Z,3.10
2022-09-03T03:24:12.481Z,2.85
2022-09-03T03:26:39.073Z,2.92
2022-09-03T03:29:05.877Z,3.30
2022-09-03T03:31:33.152Z,3.30
2022-09-03T03:34:03.725Z,2.70
2022-09-03T03:36:32.433Z,3.10
2022-09-03T03:39:00.577Z,3.00
2022-09-03T03:41:28.673Z,3.35
2022-09-03T03:43:59.425Z,2.90
2022-09-03T03:46:31.121Z,2.60
2022-09-03T03:48:58.372Z,2.75
2022-09-03T03:51:24.994Z,2.97
2022-09-03T03:53:56.165Z,3.20
2022-09-03T03:56:24.349Z,2.88
2022-09-03T03:58:51.615Z,3.33
2022-09-03T04:01:20.440Z,2.90
2022-09-03T04:03:47.464Z,2.80
2022-09-03T04:06:16.362Z,3.03
2022-09-03T04:08:44.639Z,3.72
2022-09-03T04:11:16.065Z,4.57
2022-09-03T04:13:44.285Z,3.53
2022-09-03T04:16:13.897Z,3.67
2022-09-03T04:18:41.113Z,3.13
2022-09-03T04:21:16.295Z,3.47
2022-09-03T04:23:45.498Z,3.30
2022-09-03T04:26:15.931Z,3.60
2022-09-03T04:28:42.743Z,2.67
2022-09-03T04:31:11.336Z,2.95
2022-09-03T04:33:38.822Z,4.65
2022-09-03T04:36:10.186Z,3.65
2022-09-03T04:38:39.134Z,3.42
2022-09-03T04:41:08.126Z,3.25
2022-09-03T04:43:44.516Z,3.28
2022-09-03T04:46:17.642Z,2.90
2022-09-03T04:48:48.752Z,3.50
2022-09-03T04:51:17.454Z,2.97
2022-09-03T04:53:46.426Z,2.78
2022-09-03T04:56:18.651Z,3.05
2022-09-03T04:59:14.982Z,2.70
2022-09-03T05:01:43.584Z,4.65
2022-09-03T05:04:10.221Z,4.03
2022-09-03T05:06:37.380Z,4.03
2022-09-03T05:09:05.801Z,3.28
2022-09-03T05:11:34.971Z,3.20
2022-09-03T05:14:01.574Z,3.15
2022-09-03T05:16:30.849Z,2.95
2022-09-03T05:18:59.814Z,3.10
2022-09-03T05:21:27.581Z,3.40
2022-09-03T05:23:54.700Z,3.10
2022-09-03T05:26:27.611Z,3.20
2022-09-03T05:28:57.076Z,3.33
2022-09-03T05:31:26.610Z,3.42
2022-09-03T05:33:58.560Z,4.25
2022-09-03T05:36:27.946Z,5.25
2022-09-03T05:38:54.747Z,4.65
2022-09-03T05:41:23.300Z,3.90
2022-09-03T05:43:55.128Z,3.83
2022-09-03T05:46:26.744Z,3.75
2022-09-03T05:48:53.670Z,3.67
2022-09-03T05:51:20.553Z,3.78
2022-09-03T05:53:49.248Z,3.17
2022-09-03T05:56:21.661Z,3.20
2022-09-03T05:58:53.917Z,3.35
2022-09-03T06:01:23.546Z,3.10
2022-09-03T06:03:56.558Z,2.92
2022-09-03T06:06:26.060Z,3.50
2022-09-03T06:08:55.037Z,3.95
2022-09-03T06:11:26.829Z,2.85
2022-09-03T06:13:57.861Z,3.45
2022-09-03T06:16:30.849Z,3.20
2022-09-03T06:19:03.570Z,5.05
2022-09-03T06:21:30.161Z,4.40
2022-09-03T06:24:00.048Z,3.20
2022-09-03T06:26:28.710Z,3.63
2022-09-03T06:28:57.143Z,3.45
2022-09-03T06:31:25.449Z,3.03
2022-09-03T06:33:53.625Z,3.33
2022-09-03T06:36:21.240Z,3.00
2022-09-03T06:38:47.853Z,3.03
2022-09-03T06:41:21.121Z,3.85
2022-09-03T06:43:55.620Z,3.00
2022-09-03T06:46:24.115Z,3.00
2022-09-03T06:48:51.691Z,2.63
2022-09-03T06:51:23.955Z,3.00
2022-09-03T06:53:54.474Z,3.25
2022-09-03T06:56:26.995Z,3.03
2022-09-03T06:58:59.636Z,3.10
2022-09-03T07:01:31.142Z,2.90
2022-09-03T07:04:00.908Z,2.50
2022-09-03T07:06:33.739Z,2.63
2022-09-03T07:09:00.564Z,2.77
2022-09-03T07:11:30.701Z,3.10
2022-09-03T07:13:58.698Z,2.55
2022-09-03T07:16:31.211Z,2.72
2022-09-03T07:18:57.921Z,2.72
2022-09-03T07:21:27.106Z,2.47
2022-09-03T07:23:57.842Z,2.95
2022-09-03T07:26:30.801Z,2.40
2022-09-03T07:28:59.001Z,2.85
2022-09-03T07:31:31.941Z,2.55
2022-09-03T07:34:01.406Z,2.50
2022-09-03T07:36:29.307Z,2.95
2022-09-03T07:39:03.792Z,2.72
2022-09-03T07:41:33.115Z,2.80
2022-09-03T07:44:05.764Z,2.55
2022-09-03T07:46:38.001Z,2.50
2022-09-03T07:49:06.269Z,2.97
2022-09-03T07:51:36.227Z,3.33
2022-09-03T07:54:06.863Z,2.38
2022-09-03T07:56:35.094Z,2.30
2022-09-03T07:59:03.131Z,2.63
2022-09-03T08:01:34.362Z,2.42
2022-09-03T08:04:02.503Z,2.50
2022-09-03T08:06:30.915Z,2.30
2022-09-03T08:09:04.954Z,2.53
2022-09-03T08:11:40.654Z,2.58
2022-09-03T08:14:10.226Z,2.42
2022-09-03T08:16:39.632Z,2.50
2022-09-03T08:19:07.495Z,2.60
2022-09-03T08:21:35.176Z,2.60
2022-09-03T08:24:04.647Z,2.63
2022-09-03T08:26:36.796Z,2.22
2022-09-03T08:29:05.607Z,2.72
2022-09-03T08:31:33.887Z,2.78
2022-09-03T08:34:06.462Z,2.22
2022-09-03T08:36:36.342Z,2.65
2022-09-03T08:39:08.082Z,1.98
2022-09-03T08:41:53.345Z,2.60
2022-09-03T08:44:29.475Z,2.83
2022-09-03T08:47:10.081Z,2.50
2022-09-03T08:49:50.156Z,3.10
2022-09-03T08:52:26.878Z,2.70
2022-09-03T08:55:03.145Z,2.80
2022-09-03T08:57:37.841Z,2.72
2022-09-03T09:00:05.035Z,2.55
2022-09-03T09:02:44.635Z,2.35
2022-09-03T09:05:25.563Z,2.28
2022-09-03T09:08:12.937Z,3.05
2022-09-03T09:11:02.433Z,2.50
2022-09-03T09:13:57.421Z,2.58
2022-09-03T09:16:53.368Z,2.80
2022-09-03T09:19:38.046Z,3.25
2022-09-03T09:22:12.027Z,3.15
2022-09-03T09:24:45.202Z,2.92
2022-09-03T09:27:17.318Z,2.80
2022-09-03T09:29:48.177Z,2.78
2022-09-03T09:32:17.670Z,2.20
2022-09-03T09:34:52.023Z,2.50
2022-09-03T09:37:19.903Z,2.58
2022-09-03T09:40:00.626Z,2.60
2022-09-03T09:42:29.879Z,2.75
2022-09-03T09:44:56.730Z,2.40
2022-09-03T09:47:29.302Z,2.78
2022-09-03T09:49:59.358Z,2.60
2022-09-03T09:52:29.508Z,2.97
2022-09-03T09:55:10.558Z,2.50
2022-09-03T09:57:39.699Z,2.45
2022-09-03T10:00:13.013Z,2.50
2022-09-03T10:02:56.892Z,2.78
2022-09-03T10:05:30.855Z,2.38
2022-09-03T10:08:06.575Z,3.40
2022-09-03T10:10:45.791Z,2.80
2022-09-03T10:13:29.132Z,2.63
2022-09-03T10:16:04.196Z,2.50
2022-09-03T10:18:46.769Z,2.97
2022-09-03T10:21:20.199Z,3.10
2022-09-03T10:26:32.401Z,2.50
2022-09-03T10:29:02.574Z,2.80
2022-09-03T10:31:47.598Z,2.65
2022-09-03T10:34:45.179Z,2.50
2022-09-03T10:37:48.621Z,2.83
2022-09-03T10:40:39.210Z,2.72
2022-09-03T10:43:32.529Z,3.05
2022-09-03T10:46:03.325Z,2.80
2022-09-03T10:48:48.972Z,2.63
2022-09-03T10:51:34.314Z,2.90
2022-09-03T10:54:28.957Z,2.50
2022-09-03T10:57:07.745Z,2.63
2022-09-03T10:59:48.933Z,2.40
2022-09-03T11:02:54.184Z,2.55
2022-09-03T11:05:24.961Z,2.42
2022-09-03T11:08:17.297Z,2.97
2022-09-03T11:10:50.194Z,2.70
2022-09-03T11:13:26.712Z,2.60
2022-09-03T11:15:59.578Z,2.83
2022-09-03T11:18:46.882Z,2.25
2022-09-03T11:21:16.837Z,2.83
2022-09-03T11:23:47.562Z,2.60
2022-09-03T11:26:18.326Z,2.90
2022-09-03T11:28:48.261Z,2.58
2022-09-03T11:31:43.409Z,2.70
2022-09-03T11:34:31.983Z,3.00
2022-09-03T11:37:26.321Z,2.72
2022-09-03T11:40:19.439Z,3.05
2022-09-03T11:42:47.272Z,2.40
2022-09-03T11:45:44.400Z,2.60
2022-09-03T11:48:28.921Z,2.60
2022-09-03T11:50:56.014Z,2.78
2022-09-03T11:53:28.415Z,2.50
2022-09-03T11:56:01.655Z,3.33
2022-09-03T11:58:36.201Z,2.90
2022-09-03T12:01:08.160Z,2.65
2022-09-03T12:03:58.485Z,2.55
2022-09-03T12:07:00.146Z,2.80
2022-09-03T12:09:32.767Z,2.90
2022-09-03T12:12:18.100Z,2.78
2022-09-03T12:14:57.949Z,2.53
2022-09-03T12:17:40.282Z,2.63
2022-09-03T12:20:15.834Z,2.63
2022-09-03T12:22:45.507Z,2.90
2022-09-03T12:25:14.777Z,3.53
2022-09-03T12:27:45.584Z,2.75
2022-09-03T12:30:18.877Z,2.90
2022-09-03T12:38:18.708Z,2.92
2022-09-03T12:43:42.489Z,2.97
2022-09-03T12:46:15.662Z,2.50
2022-09-03T12:52:06.219Z,3.30
2022-09-03T12:54:37.845Z,3.58
2022-09-03T12:57:05.074Z,2.70
2022-09-03T12:59:36.822Z,3.15
2022-09-03T13:02:31.658Z,2.90
2022-09-03T13:04:58.897Z,2.97
2022-09-03T13:07:37.395Z,2.58
2022-09-03T13:10:07.805Z,2.83
2022-09-03T13:12:44.549Z,3.10
2022-09-03T13:15:22.185Z,2.80
2022-09-03T13:18:10.624Z,2.75
2022-09-03T13:20:55.248Z,3.15
2022-09-03T13:23:38.114Z,3.25
2022-09-03T13:26:18.574Z,2.83
2022-09-03T13:29:01.786Z,2.83
2022-09-03T13:31:38.773Z,3.20
2022-09-03T13:34:15.474Z,2.83
2022-09-03T13:36:51.769Z,2.75
2022-09-03T13:39:26.323Z,3.00
2022-09-03T13:42:09.500Z,2.40
2022-09-03T13:44:50.288Z,3.30
2022-09-03T13:48:13.140Z,2.95
2022-09-03T13:51:00.005Z,2.83
2022-09-03T13:53:51.255Z,2.90
2022-09-03T13:56:59.685Z,2.85
2022-09-03T13:59:35.460Z,3.10
2022-09-03T14:02:13.076Z,2.67
2022-09-03T14:04:52.109Z,3.13
2022-09-03T14:07:52.437Z,2.60
2022-09-03T14:10:25.480Z,2.75
2022-09-03T14:13:16.161Z,2.88
2022-09-03T14:15:55.490Z,2.83
2022-09-03T14:18:50.822Z,2.67
2022-09-03T14:21:40.706Z,2.83
2022-09-03T14:24:22.196Z,3.00
2022-09-03T14:27:02.305Z,2.78
2022-09-03T14:29:33.720Z,3.10
2022-09-03T14:32:12.514Z,2.58
2022-09-03T14:35:07.454Z,2.90
2022-09-03T14:37:49.181Z,2.78
2022-09-03T14:40:22.365Z,2.60
2022-09-03T14:42:48.887Z,2.90
2022-09-03T14:45:26.854Z,2.58
2022-09-03T14:48:08.010Z,2.88
2022-09-03T14:50:50.393Z,2.90
2022-09-03T14:53:42.438Z,2.80
2022-09-03T14:56:20.830Z,2.72
2022-09-03T14:59:18.138Z,2.70
2022-09-03T15:01:52.438Z,2.65
2022-09-03T15:04:31.754Z,2.80
2022-09-03T15:07:25.164Z,2.60
2022-09-03T15:10:24.393Z,2.55
2022-09-03T15:13:10.700Z,2.72
2022-09-03T15:15:40.425Z,2.55
2022-09-03T15:18:20.652Z,3.22
2022-09-03T15:20:58.174Z,3.10
2022-09-03T15:23:53.084Z,2.70
2022-09-03T15:26:43.053Z,2.50
2022-09-03T15:29:28.146Z,2.90
2022-09-03T15:32:27.649Z,3.50
2022-09-03T15:35:04.473Z,3.17
2022-09-03T15:37:49.068Z,2.90
2022-09-03T15:40:39.471Z,3.08
2022-09-03T15:43:15.655Z,2.63
2022-09-03T15:45:58.318Z,3.50
2022-09-03T15:49:08.890Z,3.07
2022-09-03T15:52:01.487Z,2.80
2022-09-03T15:54:43.720Z,3.03
2022-09-03T15:57:21.871Z,3.08
2022-09-03T16:00:00.420Z,3.00
2022-09-03T16:02:50.636Z,3.20
2022-09-03T16:05:25.346Z,3.00
2022-09-03T16:08:07.012Z,3.25
2022-09-03T16:10:57.113Z,3.08
2022-09-03T16:13:34.868Z,3.08
2022-09-03T16:16:22.284Z,3.10
2022-09-03T16:19:10.093Z,3.00
2022-09-03T16:21:54.819Z,3.40
2022-09-03T16:24:28.812Z,3.20
2022-09-03T16:27:03.438Z,3.63
2022-09-03T16:29:31.668Z,2.90
2022-09-03T16:32:03.977Z,3.63
2022-09-03T16:34:42.601Z,3.55
2022-09-03T16:37:21.577Z,3.20
2022-09-03T16:40:08.324Z,3.40
2022-09-03T16:43:00.540Z,3.30
2022-09-03T16:45:48.618Z,2.75
2022-09-03T16:48:33.509Z,3.58
2022-09-03T16:51:29.129Z,2.85
2022-09-03T16:54:09.110Z,3.00
2022-09-03T16:57:00.264Z,3.70
2022-09-03T16:59:53.321Z,3.60
2022-09-03T17:02:40.107Z,2.97
2022-09-03T17:05:21.777Z,3.13
2022-09-03T17:07:57.533Z,2.88
2022-09-03T17:10:55.569Z,3.13
2022-09-03T17:13:40.763Z,3.00
2022-09-03T17:16:10.325Z,3.25
2022-09-03T17:18:58.343Z,3.13
2022-09-03T17:21:54.888Z,2.75
2022-09-03T17:24:38.387Z,3.30
2022-09-03T17:27:28.796Z,3.15
2022-09-03T17:30:03.321Z,4.03
2022-09-03T17:33:04.422Z,3.30
2022-09-03T17:36:03.529Z,3.40
2022-09-03T17:38:56.564Z,3.45
2022-09-03T17:41:54.727Z,3.47
2022-09-03T17:44:22.251Z,3.50
2022-09-03T17:46:48.854Z,3.38
2022-09-03T17:49:30.314Z,3.58
2022-09-03T17:52:20.573Z,3.28
2022-09-03T17:54:55.890Z,3.63
2022-09-03T17:58:03.032Z,3.20
2022-09-03T18:00:42.145Z,3.42
2022-09-03T18:03:18.568Z,3.38
2022-09-03T18:06:00.797Z,3.80
2022-09-03T18:08:44.993Z,3.33
2022-09-03T18:11:34.007Z,3.67
2022-09-03T18:14:33.827Z,3.17
2022-09-03T18:17:09.791Z,3.65
2022-09-03T18:20:04.348Z,3.50
2022-09-03T18:22:57.978Z,3.22
2022-09-03T18:25:46.838Z,3.20
2022-09-03T18:28:36.377Z,3.90
2022-09-03T18:31:21.863Z,3.55
2022-09-03T18:34:07.629Z,3.33
2022-09-03T18:36:52.942Z,3.80
2022-09-03T18:39:47.103Z,3.70
2022-09-03T18:42:56.374Z,5.03
2022-09-03T18:46:42.386Z,4.25
2022-09-03T18:49:30.131Z,3.53
2022-09-03T18:52:30.167Z,3.40
2022-09-03T18:55:38.646Z,3.70
2022-09-03T18:58:33.386Z,3.70
2022-09-03T19:01:40.926Z,4.25
2022-09-03T19:04:47.683Z,3.78
2022-09-03T19:08:24.609Z,3.78
2022-09-03T19:11:15.845Z,3.15
2022-09-03T19:14:01.696Z,3.95
2022-09-03T19:17:12.924Z,4.32
2022-09-03T19:20:05.215Z,3.50
2022-09-03T19:22:58.766Z,3.83
2022-09-03T19:25:47.718Z,3.78
2022-09-03T19:28:39.325Z,3.90
2022-09-03T19:31:37.837Z,3.15
2022-09-03T19:34:30.601Z,4.30
2022-09-03T19:37:37.514Z,4.05
2022-09-03T19:40:49.221Z,3.90
2022-09-03T19:43:51.107Z,3.88
2022-09-03T19:46:56.427Z,4.60
2022-09-03T19:49:55.195Z,4.28
2022-09-03T19:53:05.279Z,4.53
2022-09-03T19:56:05.178Z,4.07
2022-09-03T19:58:57.598Z,4.00
2022-09-03T20:01:47.977Z,4.20
2022-09-03T20:04:34.765Z,4.20
2022-09-03T20:07:24.346Z,3.88
2022-09-03T20:10:12.508Z,4.32
2022-09-03T20:12:47.606Z,4.05
2022-09-03T20:15:14.563Z,4.40
2022-09-03T20:18:04.517Z,4.50
2022-09-03T20:20:48.540Z,3.83
2022-09-03T20:23:23.002Z,4.07
2022-09-03T20:26:27.860Z,3.95
2022-09-03T20:29:23.264Z,3.83
2022-09-03T20:32:16.680Z,4.10
2022-09-03T20:35:05.535Z,3.75
2022-09-03T20:37:42.168Z,4.20
2022-09-03T20:40:18.257Z,4.13
2022-09-03T20:43:07.547Z,4.55
2022-09-03T20:45:42.389Z,4.57
2022-09-03T20:48:25.234Z,4.18
2022-09-03T20:51:20.210Z,5.03
2022-09-03T20:53:59.812Z,4.50
2022-09-03T20:56:35.709Z,4.60
2022-09-03T20:59:13.454Z,4.22
2022-09-03T21:01:59.086Z,4.95
2022-09-03T21:05:02.854Z,4.32
2022-09-03T21:07:46.735Z,4.75
2022-09-03T21:10:16.260Z,4.68
2022-09-03T21:12:42.838Z,4.13
2022-09-03T21:15:22.798Z,4.15
2022-09-03T21:18:06.533Z,4.45
2022-09-03T21:20:47.744Z,4.25
2022-09-03T21:23:38.256Z,5.43
2022-09-03T21:26:15.693Z,4.55
2022-09-03T21:28:49.985Z,4.65
2022-09-03T21:31:27.855Z,4.30
2022-09-03T21:34:01.502Z,4.30
2022-09-03T21:39:13.119Z,4.15
2022-09-03T21:42:06.921Z,4.32
2022-09-03T21:44:45.620Z,4.05
2022-09-03T21:47:21.351Z,4.75
2022-09-03T21:50:03.180Z,4.32
2022-09-03T21:52:36.900Z,5.28
2022-09-03T21:55:22.739Z,4.60
2022-09-03T21:58:20.006Z,4.20
2022-09-03T22:00:48.317Z,4.60
2022-09-03T22:03:14.981Z,4.70
2022-09-03T22:06:01.345Z,5.00
2022-09-03T22:08:36.953Z,4.15
2022-09-03T22:11:24.262Z,4.85
2022-09-03T22:14:04.102Z,4.90
2022-09-03T22:16:37.663Z,4.68
2022-09-03T22:22:00.602Z,4.68
2022-09-03T22:24:48.227Z,4.72
2022-09-03T22:27:35.570Z,5.18
2022-09-03T22:30:07.521Z,5.75
2022-09-03T22:32:41.198Z,4.95
2022-09-03T22:35:46.439Z,4.70
2022-09-03T22:38:33.343Z,4.40
2022-09-03T22:41:20.057Z,4.50
2022-09-03T22:44:02.069Z,5.05
2022-09-03T22:46:42.222Z,4.70
2022-09-03T22:49:21.607Z,4.40
2022-09-03T22:52:15.010Z,4.70
2022-09-03T22:55:07.080Z,4.47
2022-09-03T22:57:41.555Z,4.50
2022-09-03T23:00:10.502Z,5.35
2022-09-03T23:02:38.520Z,5.00
2022-09-03T23:05:18.586Z,4.80
2022-09-03T23:08:03.126Z,5.15
2022-09-03T23:10:35.788Z,4.30
2022-09-03T23:13:14.281Z,5.27
2022-09-03T23:15:42.164Z,4.68
2022-09-03T23:18:17.723Z,5.60
2022-09-03T23:20:51.768Z,4.95
2022-09-03T23:23:22.342Z,4.53
2022-09-03T23:26:14.769Z,5.07
2022-09-03T23:28:47.408Z,4.63
2022-09-03T23:31:19.826Z,5.20
2022-09-03T23:33:47.908Z,4.82
2022-09-03T23:40:03.425Z,5.00
2022-09-03T23:43:15.409Z,5.25
2022-09-03T23:46:04.064Z,4.35
2022-09-03T23:48:42.920Z,4.60
2022-09-03T23:51:22.586Z,4.80
2022-09-03T23:54:23.205Z,4.80
2022-09-03T23:57:28.085Z,5.25
